Harleyville, SC (29448)

5:12 AM EST on February 14, 2016 (GMT -0500)
Reevesville | | Change Station
CLOSE
Current Station
Personal Weather Station
Location: Reevesville, SC
Elevation: 105 ft
Nearby Weather Stations
Active Advisory: Flood Warning

Elev 105 ft 33.22 °N, 80.64 °W | Updated 12 seconds ago

Clear
Clear
29.5 °F
Feels Like 26 °F
N
3.6
Wind Variable Wind from NNE
Gusts 4.9 mph

Today
High -- | Low -- °F
--% Chance of Precip.
Yesterday
High -- | Low -- °F
Precip. -- in
Pressure 30.43 in
Visibility 10.0 miles
Clouds Clear
Windchill 26 °F
Dew Point 3 °F
Humidity 32%
Rainfall 0.00 in
Snow Depth Not available.
7:07 AM 6:06 PM
Waxing Crescent, 40% visible
METAR KRBW 140955Z AUTO 03007KT 10SM CLR 00/M11 A3043 RMK AO2
Pressure 30.43 in
Visibility 10.0 miles
Clouds Clear
Windchill 26 °F
Dew Point 3 °F
Humidity 32%
Rainfall 0.00 in
Snow Depth Not available.
7:07 AM 6:06 PM
Waxing Crescent, 40% visible
METAR KRBW 140955Z AUTO 03007KT 10SM CLR 00/M11 A3043 RMK AO2

10-Day Weather Forecast

Almanac

Astronomy

Feb. 14, 2016 Rise Set
Actual Time
Civil Twilight
Nautical Twilight
Astronomical Twilight
Moon
Length of Visible Light
Length of Day
Tomorrow will be .
, % of the Moon is Illuminated

Today's Extremes

State Highs State Lows

Community

WunderPhotos

Upload Photos

1,892,765 photos uploaded!

WunderBlog® & News

Nearby

Air Quality

  Air Quality AQ Index Pollutant
Not available.

Snow Depth

Station Depth Elevation

Earthquake Activity

City Distance Mag. Time & Date
Minimum magnitude displayed is 2.5.

Coastal Water Temperatures

Place Temperature

Stations

Nearby Weather Stations

Station Location Temp. Windchill Dew Point Humidity Wind Precip. Elev Updated Type
                   

Watches & Warnings

Flood Warning
Issued: 10:05 PM EST Feb. 13, 2016 – National Weather Service

The Flood Warning continues for
the edisto river near Givhans Ferry.
* At 9 PM Saturday the stage was 11.8 feet.
* Flood stage is 10.0 feet.
* Minor flooding is occurring.
* Forecast, the river will continue to fall.
* At 12.0 feet, most homes on happiness Lane are accessible only by
boat. Flooding also occurs along roadways south of Highway 17
alternate including Camp buddy Road.


Lat... Lon 3304 8065 3311 8062 3308 8036 3286 8036
          3286 8045 3302 8044